Flight Track Log - Related Links

Times and Time Zones

All times are in EDT time to prevent confusion due to time zone crossing. See the N27XP flight status page for this flight to view local times or setup timezone preferences in your user account.

Time Position Orientation Groundspeed Altitude Reporting Facility
EDT Latitude Longitude Course Direction KTS MPH feet Rate Location/Type
Thu 02:43:03 PM 42.4500 -71.3000 221° Southwest 162 186 1,000  Level KA90
Thu 02:44:47 PM 42.3808 -71.3806 221° Southwest 201 231 4,100 2,245 Climbing Boston Center
Thu 02:45:46 PM 42.3356 -71.4486 228° Southwest 230 265 7,100 2,650 Climbing Boston Center
Thu 02:46:47 PM 42.3364 -71.5300 271° West 230 265 9,400 2,132 Climbing Boston Center
Thu 02:47:47 PM 42.3392 -71.6339 272° West 242 278 11,400 1,884 Climbing Boston Center
Thu 02:48:48 PM 42.3189 -71.7353 255° West 269 310 13,200 1,770 Climbing Boston Center
Thu 02:49:49 PM 42.2819 -71.8339 243° Southwest 292 336 15,000 1,785 Climbing Boston Center
Thu 02:50:49 PM 42.2367 -71.9439 241° Southwest 320 368 16,800 1,881 Climbing Boston Center
Thu 02:51:47 PM 42.1956 -72.0506 243° Southwest 331 381 18,700 1,800 Climbing Boston Center
Thu 02:52:49 PM 42.1394 -72.1489 232° Southwest 331 381 20,400 1,650 Climbing Boston Center
Thu 02:53:47 PM 42.0856 -72.2414 232° Southwest 331 381 22,000 1,729 Climbing Boston Center
Thu 02:54:47 PM 42.0294 -72.3394 232° Southwest 331 381 23,800 1,488 Climbing Boston Center
Thu 02:55:48 PM 41.9731 -72.4317 231° Southwest 326 375 25,000 1,279 Climbing Boston Center
Thu 02:56:49 PM 41.9147 -72.5267 230° Southwest 326 375 26,400 1,412 Climbing Boston Center
Thu 02:57:47 PM 41.8606 -72.6242 233° Southwest 326 375 27,800 1,322 Climbing Boston Center
Thu 02:58:47 PM 41.8039 -72.7158 230° Southwest 326 375 29,000 1,289 Climbing Boston Center
Thu 02:59:48 PM 41.7411 -72.8183 231° Southwest 338 389 30,400 1,328 Climbing Boston Center
Thu 03:00:49 PM 41.6825 -72.9181 232° Southwest 349 402 31,700 1,339 Climbing Boston Center
Thu 03:01:49 PM 41.6258 -73.0122 231° Southwest 344 396 33,100 1,139 Climbing Boston Center
Thu 03:03:27 PM 41.5414 -73.1606 233° Southwest 326 375 34,700 987 Climbing New York Center
Thu 03:04:27 PM 41.4833 -73.2525 230° Southwest 326 375 35,700 650 Climbing New York Center
Thu 03:05:27 PM 41.4250 -73.3472 231° Southwest 326 375 36,000 100 Climbing New York Center
Thu 03:06:27 PM 41.3622 -73.4525 232° Southwest 338 389 35,900 100 Descending New York Center
Thu 03:07:27 PM 41.2953 -73.5603 230° Southwest 365 420 36,200 600 Climbing New York Center
Thu 03:08:27 PM 41.2322 -73.6681 232° Southwest 378 435 37,100 900 Climbing New York Center
Thu 03:09:27 PM 41.1692 -73.7728 231° Southwest 378 435 38,000 450 Climbing New York Center
Thu 03:10:27 PM 41.1039 -73.8800 231° Southwest 378 435 38,000  Level New York Center
Thu 03:11:27 PM 41.0406 -73.9925 233° Southwest 383 441 38,000  Level New York Center
Thu 03:12:27 PM 40.9708 -74.1075 231° Southwest 393 452 38,000  Level New York Center
Thu 03:13:27 PM 40.9008 -74.2164 230° Southwest 393 452 38,000  Level New York Center
Thu 03:14:27 PM 40.8353 -74.3256 232° Southwest 393 452 38,000  Level New York Center
Thu 03:15:27 PM 40.7669 -74.4425 232° Southwest 393 452 38,000  Level New York Center
Thu 03:16:27 PM 40.6989 -74.5511 230° Southwest 393 452 38,000  Level New York Center
Thu 03:17:27 PM 40.6325 -74.6706 234° Southwest 399 459 38,000  Level New York Center
Thu 03:18:27 PM 40.5703 -74.7928 236° Southwest 405 466 38,000  Level New York Center
Thu 03:19:27 PM 40.5097 -74.9175 237° Southwest 405 466 38,000  Level New York Center
Thu 03:20:27 PM 40.4469 -75.0392 236° Southwest 405 466 38,000 -50 Level New York Center
Thu 03:21:27 PM 40.3839 -75.1633 236° Southwest 412 474 37,900  Descending New York Center
Thu 03:22:27 PM 40.3208 -75.2872 236° Southwest 412 474 38,000 33 Climbing New York Center
Thu 03:24:00 PM 40.1916 -75.4005 229° Southwest  Level Estimated
Thu 03:24:27 PM 40.1864 -75.5258 229° Southwest 412 474 38,000  Level New York Center
Thu 03:25:27 PM 40.1111 -75.6400 229° Southwest 419 482 38,000  Level New York Center
Thu 03:26:27 PM 40.0253 -75.7425 222° Southwest 424 488 38,000  Level New York Center
Thu 03:27:27 PM 39.9397 -75.8419 222° Southwest 424 488 38,000  Level New York Center
Thu 03:28:27 PM 39.8519 -75.9439 222° Southwest 424 488 38,000  Level New York Center
Thu 03:29:27 PM 39.7642 -76.0453 222° Southwest 424 488 38,000 -36 Level New York Center
Thu 03:31:13 PM 39.6119 -76.2219 222° Southwest 439 505 37,900  Descending Washington Center
Thu 03:32:14 PM 39.5217 -76.3233 221° Southwest 439 505 38,000  Climbing Washington Center
Thu 03:33:12 PM 39.4378 -76.4325 225° Southwest 439 505 37,900  Descending Washington Center
Thu 03:34:12 PM 39.3514 -76.5606 229° Southwest 433 498 38,000 50 Climbing Washington Center
Thu 03:35:13 PM 39.2753 -76.6828 231° Southwest 433 498 38,000  Level Washington Center
Thu 03:36:13 PM 39.2075 -76.7861 230° Southwest 438 504 38,000  Level Washington Center
Thu 03:37:12 PM 39.1250 -76.9161 231° Southwest 433 498 38,000  Level Washington Center
Thu 03:38:13 PM 39.0550 -77.0217 230° Southwest 433 498 38,000  Level Washington Center
Thu 03:39:14 PM 38.9683 -77.1214 222° Southwest 428 493 38,000  Level Washington Center
Thu 03:40:14 PM 38.8753 -77.2236 221° Southwest 429 494 38,000  Level Washington Center
Thu 03:42:12 PM 38.6889 -77.4242 220° Southwest 439 505 38,000  Level Washington Center
Thu 03:43:13 PM 38.5956 -77.5256 220° Southwest 444 511 38,000  Level Washington Center
Thu 03:44:13 PM 38.5022 -77.6292 221° Southwest 444 511 38,000  Level Washington Center
Thu 03:45:14 PM 38.4044 -77.7325 220° Southwest 444 511 38,000  Level Washington Center
Thu 03:46:14 PM 38.3108 -77.8356 221° Southwest 444 511 38,000 -198 Level Washington Center
Thu 03:47:15 PM 38.2044 -77.9486 220° Southwest 444 511 37,600 -1,017 Descending Washington Center
Thu 03:48:12 PM 38.1019 -78.0564 220° Southwest 454 522 36,000 -1,831 Descending Washington Center
Thu 03:49:13 PM 37.9997 -78.1611 219° Southwest 474 545 34,000 -1,918 Descending Washington Center
Thu 03:50:14 PM 37.9003 -78.2314 209° Southwest 468 539 32,100 -1,008 Descending Washington Center
Thu 03:51:12 PM 37.7861 -78.3036 207° Southwest 468 539 32,000 -101 Descending Washington Center
Thu 03:52:13 PM 37.6758 -78.3731 206° Southwest 462 532 31,900 -836 Descending Washington Center
Thu 03:53:14 PM 37.5508 -78.4550 207° Southwest 457 526 30,300 -1,537 Descending Washington Center
Thu 03:54:14 PM 37.4406 -78.5292 208° Southwest 457 526 28,800 -1,475 Descending Washington Center
Thu 03:55:12 PM 37.3306 -78.5981 206° Southwest 452 520 27,400 -1,462 Descending Washington Center
Thu 03:56:13 PM 37.2181 -78.6694 207° Southwest 452 520 25,900 -1,426 Descending Washington Center
Thu 03:57:14 PM 37.1058 -78.7403 207° Southwest 458 527 24,500 -1,311 Descending Washington Center
Thu 03:58:12 PM 37.0039 -78.8064 207° Southwest 458 527 23,300 -1,210 Descending Washington Center
Thu 03:59:13 PM 36.8978 -78.8747 207° Southwest 453 521 22,100 -1,131 Descending Washington Center
Thu 04:00:14 PM 36.7936 -78.9403 207° Southwest 441 507 21,000 -1,033 Descending Washington Center
Thu 04:01:15 PM 36.6814 -78.9950 201° Southwest 436 502 20,000 -508 Descending Washington Center
Thu 04:02:12 PM 36.5628 -78.9847 176° South 418 481 20,000  Level Washington Center
Thu 04:03:13 PM 36.4450 -78.9511 167° South 418 481 20,000  Level Washington Center
Thu 04:04:14 PM 36.3289 -78.9178 167° South 423 487 20,000  Level Washington Center
Thu 04:05:14 PM 36.2131 -78.8819 166° South 428 493 20,000 -508 Level Washington Center
Thu 04:06:12 PM 36.0950 -78.8489 167° South 428 493 19,000 -1,576 Descending Washington Center
Thu 04:07:12 PM 35.9811 -78.8186 168° South 428 493 16,900 -2,162 Descending Washington Center
Thu 04:08:28 PM 35.8347 -78.8356 185° South 404 465 14,100 -1,820 Descending Washington Center
Thu 04:09:14 PM 35.7836 -78.8744 212° Southwest 368 423 13,200 -808 Descending Washington Center
Thu 04:10:12 PM 35.7044 -78.9453 216° Southwest 355 409 12,700 -1,361 Descending Washington Center
Thu 04:11:13 PM 35.6294 -79.0139 217° Southwest 355 409 10,500 -2,182 Descending Washington Center
Thu 04:12:13 PM 35.5522 -79.0869 218° Southwest 332 382 8,300 -1,785 Descending Washington Center
Thu 04:13:14 PM 35.5072 -79.1258 215° Southwest 303 349 6,900 -1,412 Descending Washington Center
Thu 04:14:12 PM 35.4278 -79.1964 216° Southwest 279 321 5,500 -1,361 Descending Washington Center
Thu 04:15:13 PM 35.3742 -79.2450 216° Southwest 253 291 4,200 -1,279 Descending Washington Center

Login

Don't have an account? Register now (free) for customized features, flight alerts, and more!